createdAt,value
2022-11-29T00:00:50.095Z,18.83
2022-11-29T00:03:21.107Z,19.65
2022-11-29T00:05:48.371Z,19.58
2022-11-29T00:08:15.312Z,19.50
2022-11-29T00:10:42.450Z,19.20
2022-11-29T00:13:09.530Z,18.90
2022-11-29T00:15:39.219Z,19.77
2022-11-29T00:18:07.141Z,19.52
2022-11-29T00:20:34.882Z,19.67
2022-11-29T00:23:02.237Z,19.55
2022-11-29T00:25:29.463Z,18.88
2022-11-29T00:27:56.471Z,18.58
2022-11-29T00:30:23.829Z,18.95
2022-11-29T00:32:52.233Z,19.33
2022-11-29T00:35:19.499Z,19.20
2022-11-29T00:37:46.247Z,16.52
2022-11-29T00:40:13.476Z,18.30
2022-11-29T00:42:40.357Z,18.80
2022-11-29T00:45:08.485Z,18.40
2022-11-29T00:47:35.433Z,16.73
2022-11-29T00:50:04.767Z,18.05
2022-11-29T00:54:59.185Z,16.05
2022-11-29T00:57:26.075Z,16.20
2022-11-29T00:59:53.216Z,17.45
2022-11-29T01:02:20.144Z,17.27
2022-11-29T01:04:47.522Z,17.13
2022-11-29T01:07:16.015Z,17.55
2022-11-29T01:09:43.471Z,18.35
2022-11-29T01:12:10.482Z,18.73
2022-11-29T01:14:37.944Z,17.80
2022-11-29T01:17:04.847Z,18.40
2022-11-29T01:19:32.243Z,16.25
2022-11-29T01:21:59.310Z,16.70
2022-11-29T01:24:29.718Z,16.58
2022-11-29T01:26:56.695Z,16.67
2022-11-29T01:29:23.893Z,15.88
2022-11-29T01:31:50.849Z,15.25
2022-11-29T01:34:18.235Z,15.88
2022-11-29T01:36:45.311Z,15.27
2022-11-29T01:39:12.466Z,15.07
2022-11-29T01:41:40.714Z,14.63
2022-11-29T01:44:46.851Z,15.68
2022-11-29T01:47:13.987Z,15.40
2022-11-29T01:49:44.120Z,16.10
2022-11-29T01:52:15.084Z,15.27
2022-11-29T01:54:46.332Z,16.20
2022-11-29T01:57:15.390Z,14.77
2022-11-29T01:59:45.701Z,15.02
2022-11-29T02:02:15.181Z,16.35
2022-11-29T02:04:45.463Z,17.05
2022-11-29T02:07:12.899Z,15.77
2022-11-29T02:09:40.143Z,16.48
2022-11-29T02:12:21.348Z,15.55
2022-11-29T02:15:05.415Z,16.50
2022-11-29T02:17:43.488Z,16.17
2022-11-29T02:21:03.443Z,15.40
2022-11-29T02:23:51.254Z,15.05
2022-11-29T02:26:34.457Z,14.57
2022-11-29T02:29:31.280Z,14.05
2022-11-29T02:32:34.262Z,13.90
2022-11-29T02:35:18.116Z,14.00
2022-11-29T02:38:06.389Z,14.43
2022-11-29T02:40:55.552Z,13.93
2022-11-29T02:43:57.852Z,13.50
2022-11-29T02:46:48.214Z,13.00
2022-11-29T02:49:26.032Z,13.82
2022-11-29T02:51:59.534Z,12.90
2022-11-29T02:54:34.845Z,13.70
2022-11-29T02:57:07.253Z,13.05
2022-11-29T02:59:45.603Z,12.98
2022-11-29T03:02:21.568Z,12.95
2022-11-29T03:04:53.780Z,12.88
2022-11-29T03:07:30.320Z,11.93
2022-11-29T03:10:03.601Z,12.90
2022-11-29T03:12:38.353Z,13.45
2022-11-29T03:15:19.225Z,13.25
2022-11-29T03:18:08.007Z,12.93
2022-11-29T03:23:15.099Z,12.48
2022-11-29T03:25:46.228Z,13.52
2022-11-29T03:28:18.761Z,14.95
2022-11-29T03:30:55.598Z,14.75
2022-11-29T03:33:30.808Z,13.07
2022-11-29T03:36:05.787Z,14.25
2022-11-29T03:38:40.054Z,14.23
2022-11-29T03:41:17.825Z,12.73
2022-11-29T03:43:50.400Z,13.45
2022-11-29T03:46:25.341Z,12.02
2022-11-29T03:48:59.666Z,11.85
2022-11-29T03:51:38.844Z,12.32
2022-11-29T03:54:12.853Z,12.15
2022-11-29T03:56:40.959Z,12.52
2022-11-29T03:59:21.167Z,12.50
2022-11-29T04:02:16.718Z,12.90
2022-11-29T04:05:09.291Z,14.13
2022-11-29T04:07:51.370Z,13.32
2022-11-29T04:10:37.370Z,13.30
2022-11-29T04:13:29.230Z,11.88
2022-11-29T04:16:25.265Z,11.48
2022-11-29T04:19:20.757Z,12.65
2022-11-29T04:22:10.677Z,12.50
2022-11-29T04:25:32.149Z,12.88
2022-11-29T04:28:16.082Z,12.93
2022-11-29T04:30:59.786Z,13.10
2022-11-29T04:33:58.428Z,14.23
2022-11-29T04:37:01.510Z,13.60
2022-11-29T04:39:48.980Z,13.60
2022-11-29T04:42:46.624Z,12.32
2022-11-29T04:45:53.513Z,14.57
2022-11-29T04:48:39.167Z,13.43
2022-11-29T04:51:17.290Z,13.50
2022-11-29T04:53:58.328Z,15.48
2022-11-29T04:56:32.860Z,14.57
2022-11-29T04:59:07.610Z,15.35
2022-11-29T05:01:45.906Z,14.30
2022-11-29T05:04:20.935Z,14.60
2022-11-29T05:06:58.692Z,13.68
2022-11-29T05:09:38.387Z,13.50
2022-11-29T05:12:14.401Z,12.90
2022-11-29T05:15:00.945Z,13.95
2022-11-29T05:17:36.705Z,13.48
2022-11-29T05:20:21.435Z,14.98
2022-11-29T05:23:00.147Z,14.40
2022-11-29T05:28:10.387Z,15.30
2022-11-29T05:31:06.489Z,14.35
2022-11-29T05:33:49.756Z,15.70
2022-11-29T05:36:27.259Z,17.23
2022-11-29T05:39:12.328Z,17.25
2022-11-29T05:41:57.608Z,17.05
2022-11-29T05:44:32.522Z,16.20
2022-11-29T05:47:02.573Z,17.33
2022-11-29T05:49:40.212Z,16.17
2022-11-29T05:52:21.875Z,17.23
2022-11-29T05:55:02.452Z,18.15
2022-11-29T05:57:38.747Z,16.00
2022-11-29T06:00:10.658Z,16.75
2022-11-29T06:02:52.201Z,15.43
2022-11-29T06:05:28.867Z,16.20
2022-11-29T06:08:02.691Z,14.68
2022-11-29T06:10:33.864Z,15.30
2022-11-29T06:13:11.408Z,14.38
2022-11-29T06:16:02.781Z,13.27
2022-11-29T06:18:54.512Z,13.40
2022-11-29T06:21:30.689Z,12.23
2022-11-29T06:24:25.930Z,12.93
2022-11-29T06:27:25.616Z,13.05
2022-11-29T06:30:02.227Z,12.98
2022-11-29T06:32:34.501Z,11.88
2022-11-29T06:35:08.079Z,12.93
2022-11-29T06:37:39.146Z,13.85
2022-11-29T06:40:10.828Z,14.50
2022-11-29T06:42:37.793Z,13.23
2022-11-29T06:45:06.191Z,13.23
2022-11-29T06:47:40.949Z,12.47
2022-11-29T06:50:25.208Z,13.95
2022-11-29T06:52:59.323Z,13.05
2022-11-29T06:55:38.192Z,13.90
2022-11-29T06:58:17.208Z,14.40
2022-11-29T07:00:56.504Z,15.50
2022-11-29T07:03:56.269Z,13.57
2022-11-29T07:06:27.826Z,13.95
2022-11-29T08:29:13.144Z,17.58
2022-11-29T08:31:40.460Z,16.10
2022-11-29T08:34:08.278Z,16.70
2022-11-29T08:36:35.477Z,16.00
2022-11-29T08:39:08.978Z,15.45
2022-11-29T08:41:36.923Z,15.20
2022-11-29T08:44:05.024Z,14.90
2022-11-29T08:46:52.336Z,14.07
2022-11-29T08:49:19.285Z,13.68
2022-11-29T08:51:46.552Z,14.15
2022-11-29T08:54:13.510Z,13.23
2022-11-29T08:59:27.567Z,14.40
2022-11-29T09:01:56.195Z,14.65
2022-11-29T09:04:23.263Z,12.98
2022-11-29T09:06:50.655Z,13.52
2022-11-29T09:09:17.789Z,15.50
2022-11-29T09:11:49.245Z,12.45
2022-11-29T09:14:17.779Z,13.05
2022-11-29T09:16:45.139Z,12.57
2022-11-29T09:19:14.768Z,12.38
2022-11-29T09:21:41.959Z,12.80
2022-11-29T09:24:10.390Z,12.60
2022-11-29T09:26:38.168Z,11.23
2022-11-29T09:29:06.650Z,12.60
2022-11-29T09:31:35.034Z,12.73
2022-11-29T09:34:02.388Z,13.20
2022-11-29T09:36:31.367Z,12.95
2022-11-29T09:38:59.555Z,12.60
2022-11-29T09:41:48.647Z,12.45
2022-11-29T09:46:58.855Z,11.05
2022-11-29T09:49:41.087Z,11.57
2022-11-29T09:52:22.412Z,10.63
2022-11-29T09:54:56.965Z,12.20
2022-11-29T09:57:26.984Z,12.73
2022-11-29T09:59:58.953Z,12.10
2022-11-29T10:02:36.104Z,11.85
2022-11-29T10:05:10.466Z,10.85
2022-11-29T10:07:46.278Z,12.35
2022-11-29T10:10:18.426Z,12.90
2022-11-29T10:12:50.480Z,12.65
2022-11-29T10:15:21.578Z,12.35
2022-11-29T10:17:54.621Z,11.77
2022-11-29T10:20:24.634Z,11.85
2022-11-29T10:22:57.402Z,11.48
2022-11-29T10:25:26.235Z,11.52
2022-11-29T10:30:21.292Z,11.48
2022-11-29T10:32:56.128Z,10.05
2022-11-29T10:35:23.399Z,11.40
2022-11-29T10:38:28.660Z,11.68
2022-11-29T10:40:46.952Z,10.85
2022-11-29T10:43:14.213Z,11.32
2022-11-29T10:45:50.031Z,11.43
2022-11-29T10:48:20.042Z,11.75
2022-11-29T10:50:49.272Z,10.55
2022-11-29T10:53:22.677Z,9.80
2022-11-29T10:55:54.915Z,9.70
2022-11-29T10:58:28.308Z,10.07
2022-11-29T11:00:58.337Z,9.48
2022-11-29T11:03:33.551Z,9.35
2022-11-29T11:06:04.304Z,9.75
2022-11-29T11:08:34.329Z,9.73
2022-11-29T11:11:03.256Z,8.05
2022-11-29T11:13:32.206Z,8.55
2022-11-29T11:16:09.827Z,8.52
2022-11-29T11:18:37.889Z,7.68
2022-11-29T11:21:09.436Z,8.48
2022-11-29T11:23:45.392Z,7.80
2022-11-29T11:26:14.629Z,8.00
2022-11-29T11:28:48.500Z,7.65
2022-11-29T11:31:16.387Z,7.82
2022-11-29T11:33:45.670Z,8.00
2022-11-29T11:36:15.343Z,7.85
2022-11-29T11:38:52.042Z,7.03
2022-11-29T11:41:23.505Z,8.77
2022-11-29T11:43:56.354Z,6.28
2022-11-29T11:46:23.831Z,7.57
2022-11-29T11:48:51.702Z,6.97
2022-11-29T11:51:23.250Z,7.82
2022-11-29T11:53:55.680Z,7.28
2022-11-29T11:56:24.223Z,7.10
2022-11-29T11:58:54.189Z,7.15
2022-11-29T12:01:28.684Z,6.93
2022-11-29T12:04:02.477Z,6.60
2022-11-29T12:06:37.274Z,7.60
2022-11-29T12:09:16.476Z,7.10
2022-11-29T12:11:49.662Z,7.32
2022-11-29T12:14:25.651Z,8.52
2022-11-29T12:17:15.457Z,8.77
2022-11-29T12:19:58.915Z,7.50
2022-11-29T12:22:30.649Z,7.68
2022-11-29T12:25:05.495Z,8.00
2022-11-29T12:27:32.377Z,7.43
2022-11-29T12:30:00.085Z,8.45
2022-11-29T12:32:51.712Z,8.65
2022-11-29T12:35:39.348Z,8.15
2022-11-29T12:38:15.878Z,8.93
2022-11-29T12:40:53.441Z,8.68
2022-11-29T12:43:30.505Z,8.77
2022-11-29T12:46:04.686Z,8.43
2022-11-29T12:48:41.036Z,8.18
2022-11-29T12:51:19.822Z,8.63
2022-11-29T12:54:02.306Z,8.10
2022-11-29T12:56:38.515Z,8.68
2022-11-29T12:59:22.188Z,9.02
2022-11-29T13:02:03.836Z,8.50
2022-11-29T13:04:39.006Z,9.25
2022-11-29T13:07:14.733Z,9.55
2022-11-29T13:09:56.322Z,8.82
2022-11-29T13:12:33.124Z,8.82
2022-11-29T13:15:05.339Z,8.90
2022-11-29T13:17:39.633Z,9.15
2022-11-29T13:20:20.885Z,8.05
2022-11-29T13:22:56.137Z,9.07
2022-11-29T13:25:27.558Z,8.93
2022-11-29T13:28:00.138Z,9.48
2022-11-29T13:30:27.344Z,9.02
2022-11-29T13:33:04.218Z,9.57
2022-11-29T13:35:38.807Z,9.77
2022-11-29T13:38:18.585Z,10.48
2022-11-29T13:40:57.046Z,9.93
2022-11-29T13:43:36.686Z,9.68
2022-11-29T13:46:16.435Z,10.20
2022-11-29T13:48:49.952Z,9.95
2022-11-29T13:51:28.833Z,10.48
2022-11-29T13:53:57.921Z,10.38
2022-11-29T13:56:33.461Z,9.82
2022-11-29T13:59:06.888Z,9.70
2022-11-29T14:01:44.178Z,12.02
2022-11-29T14:04:26.509Z,12.55
2022-11-29T14:07:04.176Z,11.27
2022-11-29T14:09:41.097Z,10.82
2022-11-29T14:12:26.859Z,10.82
2022-11-29T14:15:00.297Z,10.50
2022-11-29T14:17:48.651Z,11.05
2022-11-29T14:20:45.773Z,10.20
2022-11-29T14:23:29.619Z,10.90
2022-11-29T14:26:28.116Z,10.85
2022-11-29T14:28:55.861Z,11.45
2022-11-29T14:31:55.508Z,11.52
2022-11-29T14:34:42.535Z,11.48
2022-11-29T14:37:29.934Z,12.02
2022-11-29T14:39:59.907Z,10.35
2022-11-29T14:42:28.403Z,12.25
2022-11-29T14:45:06.289Z,13.02
2022-11-29T14:47:37.166Z,12.07
2022-11-29T14:50:09.211Z,11.52
2022-11-29T14:52:39.069Z,12.00
2022-11-29T14:55:25.645Z,13.00
2022-11-29T14:57:55.069Z,12.80
2022-11-29T15:00:23.599Z,12.25
2022-11-29T15:02:56.413Z,12.55
2022-11-29T15:05:30.893Z,12.95
2022-11-29T15:08:09.090Z,14.38
2022-11-29T15:10:40.149Z,14.10
2022-11-29T15:13:12.403Z,13.77
2022-11-29T15:15:58.458Z,14.18
2022-11-29T15:18:51.169Z,12.60
2022-11-29T15:21:31.507Z,13.23
2022-11-29T15:24:03.116Z,12.43
2022-11-29T15:26:31.026Z,12.30
2022-11-29T15:29:13.384Z,12.20
2022-11-29T15:31:41.512Z,12.43
2022-11-29T15:34:20.319Z,12.55
2022-11-29T15:36:47.811Z,12.20
2022-11-29T15:39:30.570Z,12.32
2022-11-29T15:42:02.197Z,11.98
2022-11-29T15:44:32.591Z,14.05
2022-11-29T15:47:16.405Z,13.55
2022-11-29T15:49:45.317Z,12.75
2022-11-29T15:52:20.562Z,13.20
2022-11-29T15:54:52.017Z,11.70
2022-11-29T15:57:24.985Z,13.00
2022-11-29T15:59:55.442Z,12.23
2022-11-29T16:02:25.108Z,12.07
2022-11-29T16:04:57.427Z,12.75
2022-11-29T16:07:27.540Z,13.38
2022-11-29T16:09:59.192Z,12.95
2022-11-29T16:12:26.737Z,12.70
2022-11-29T16:14:56.526Z,12.50
2022-11-29T16:17:25.997Z,13.32
2022-11-29T16:20:05.240Z,13.50
2022-11-29T16:22:32.500Z,14.10
2022-11-29T16:25:07.994Z,13.25
2022-11-29T16:27:35.976Z,14.60
2022-11-29T16:30:07.520Z,13.45
2022-11-29T16:32:38.321Z,14.38
2022-11-29T16:35:12.531Z,14.02
2022-11-29T16:37:46.282Z,15.70
2022-11-29T16:40:24.626Z,14.30
2022-11-29T16:43:08.118Z,14.55
2022-11-29T16:45:37.064Z,14.35
2022-11-29T16:48:28.580Z,15.30
2022-11-29T16:51:25.442Z,14.75
2022-11-29T16:53:53.772Z,15.00
2022-11-29T16:56:24.601Z,14.27
2022-11-29T16:59:25.498Z,16.30
2022-11-29T17:01:41.030Z,15.43
2022-11-29T17:04:09.328Z,14.52
2022-11-29T17:06:38.205Z,15.48
2022-11-29T17:09:05.603Z,15.98
2022-11-29T17:11:32.947Z,15.23
2022-11-29T17:13:59.883Z,15.93
2022-11-29T17:16:27.103Z,15.30
2022-11-29T17:18:54.256Z,16.33
2022-11-29T17:21:24.007Z,17.45
2022-11-29T17:23:53.388Z,16.63
2022-11-29T17:26:21.743Z,15.40
2022-11-29T17:28:50.376Z,16.92
2022-11-29T17:31:20.187Z,17.00
2022-11-29T17:33:48.665Z,17.80
2022-11-29T17:36:19.290Z,17.48
2022-11-29T17:38:46.768Z,17.15
2022-11-29T17:41:16.586Z,16.30
2022-11-29T17:43:43.694Z,16.67
2022-11-29T17:46:13.096Z,17.23
2022-11-29T17:51:28.803Z,16.63
2022-11-29T17:53:54.958Z,17.60
2022-11-29T17:56:24.962Z,18.80
2022-11-29T17:58:53.068Z,19.60
2022-11-29T18:01:21.809Z,21.35
2022-11-29T18:03:51.752Z,21.15
2022-11-29T18:06:20.668Z,19.05
2022-11-29T18:08:50.755Z,18.75
2022-11-29T18:11:21.518Z,18.17
2022-11-29T18:13:50.506Z,19.52
2022-11-29T18:16:19.955Z,18.55
2022-11-29T18:18:47.840Z,18.02
2022-11-29T18:21:19.963Z,22.08
2022-11-29T18:23:50.865Z,18.83
2022-11-29T18:26:20.270Z,16.17
2022-11-29T18:31:18.939Z,16.92
2022-11-29T18:33:48.217Z,16.55
2022-11-29T18:36:17.416Z,16.48
2022-11-29T18:38:45.697Z,16.30
2022-11-29T18:41:15.771Z,16.70
2022-11-29T18:43:43.062Z,14.88
2022-11-29T18:46:11.995Z,16.38
2022-11-29T18:48:41.216Z,14.63
2022-11-29T18:51:10.279Z,15.52
2022-11-29T18:53:38.126Z,15.45
2022-11-29T18:56:07.760Z,16.08
2022-11-29T18:58:34.767Z,14.02
2022-11-29T19:01:07.186Z,14.32
2022-11-29T19:03:35.895Z,16.50
2022-11-29T19:06:07.476Z,14.07
2022-11-29T19:08:34.747Z,14.05
2022-11-29T19:11:04.664Z,13.88
2022-11-29T19:13:31.859Z,13.50
2022-11-29T19:15:59.710Z,14.90
2022-11-29T19:18:26.763Z,14.38
2022-11-29T19:20:53.972Z,12.80
2022-11-29T19:23:22.708Z,13.77
2022-11-29T19:25:50.414Z,13.13
2022-11-29T19:28:18.576Z,13.80
2022-11-29T19:30:54.122Z,13.35
2022-11-29T19:33:21.075Z,11.82
2022-11-29T19:35:48.154Z,12.60
2022-11-29T19:38:15.468Z,12.98
2022-11-29T19:40:44.050Z,12.95
2022-11-29T19:43:11.194Z,13.05
2022-11-29T19:45:39.277Z,12.15
2022-11-29T19:48:06.697Z,13.05
2022-11-29T19:50:33.886Z,12.70
2022-11-29T19:53:00.770Z,12.57
2022-11-29T19:55:27.977Z,13.90
2022-11-29T19:57:56.718Z,14.73
2022-11-29T20:02:51.417Z,14.23
2022-11-29T20:05:18.831Z,15.32
2022-11-29T20:07:45.903Z,16.08
2022-11-29T20:10:13.122Z,16.10
2022-11-29T20:12:40.046Z,17.08
2022-11-29T20:15:09.368Z,16.77
2022-11-29T20:20:04.143Z,16.35
2022-11-29T20:22:30.982Z,17.45
2022-11-29T20:24:58.237Z,17.30
2022-11-29T20:27:25.139Z,16.77
2022-11-29T20:29:52.458Z,17.27
2022-11-29T20:32:22.155Z,18.13
2022-11-29T20:34:50.053Z,17.88
2022-11-29T20:37:30.467Z,18.10
2022-11-29T20:40:00.538Z,19.08
2022-11-29T20:42:44.624Z,18.35
2022-11-29T20:45:13.701Z,18.90
2022-11-29T20:47:49.135Z,18.35
2022-11-29T20:50:22.870Z,18.90
2022-11-29T20:53:01.120Z,19.73
2022-11-29T20:55:28.439Z,17.73
2022-11-29T20:57:55.410Z,18.08
2022-11-29T21:00:22.967Z,19.67
2022-11-29T21:02:51.229Z,20.48
2022-11-29T21:05:18.382Z,20.38
2022-11-29T21:07:45.831Z,20.45
2022-11-29T21:10:16.402Z,20.67
2022-11-29T21:12:45.659Z,21.48
2022-11-29T21:15:14.492Z,19.23
2022-11-29T21:17:42.931Z,20.45
2022-11-29T21:20:18.329Z,18.08
2022-11-29T21:22:52.877Z,19.95
2022-11-29T21:25:24.990Z,20.48
2022-11-29T21:27:54.436Z,19.83
2022-11-29T21:30:24.273Z,20.55
2022-11-29T21:32:52.130Z,18.88
2022-11-29T21:35:23.332Z,18.83
2022-11-29T21:37:54.434Z,19.55
2022-11-29T21:40:21.663Z,20.30
2022-11-29T21:42:48.532Z,19.58
2022-11-29T21:45:16.276Z,20.48
2022-11-29T21:47:44.127Z,19.40
2022-11-29T21:50:12.276Z,21.40
2022-11-29T21:52:40.541Z,20.42
2022-11-29T21:55:08.608Z,20.90
2022-11-29T21:57:35.684Z,19.35
2022-11-29T22:00:03.939Z,18.88
2022-11-29T22:02:30.920Z,18.48
2022-11-29T22:04:58.279Z,18.85
2022-11-29T22:07:25.198Z,19.27
2022-11-29T22:09:53.762Z,19.27
2022-11-29T22:12:33.721Z,19.13
2022-11-29T22:15:01.900Z,17.98
2022-11-29T22:17:28.767Z,18.40
2022-11-29T22:19:55.920Z,17.77
2022-11-29T22:22:25.042Z,18.23
2022-11-29T22:24:55.737Z,17.65
2022-11-29T22:27:22.661Z,17.67
2022-11-29T22:29:50.276Z,18.50
2022-11-29T22:32:17.254Z,16.60
2022-11-29T22:34:44.759Z,18.35
2022-11-29T22:37:12.501Z,16.88
2022-11-29T22:39:39.629Z,15.80
2022-11-29T22:42:07.881Z,15.88
2022-11-29T22:44:35.083Z,15.70
2022-11-29T22:47:02.192Z,16.27
2022-11-29T22:49:30.024Z,17.30
2022-11-29T22:51:56.893Z,16.60
2022-11-29T22:54:24.085Z,17.52
2022-11-29T22:56:52.233Z,16.58
2022-11-29T22:59:20.786Z,17.08
2022-11-29T23:01:47.959Z,16.15
2022-11-29T23:04:15.717Z,16.27
2022-11-29T23:06:43.866Z,15.30
2022-11-29T23:09:16.251Z,17.73
2022-11-29T23:11:46.231Z,17.02
2022-11-29T23:14:13.886Z,17.38
2022-11-29T23:16:42.264Z,16.85
2022-11-29T23:19:10.145Z,16.00
2022-11-29T23:21:38.791Z,17.00
2022-11-29T23:24:06.511Z,17.63
2022-11-29T23:26:39.641Z,18.40
2022-11-29T23:29:08.912Z,18.88
2022-11-29T23:31:35.916Z,19.85
2022-11-29T23:34:04.477Z,20.40
2022-11-29T23:36:31.601Z,19.63
2022-11-29T23:38:58.935Z,20.13
2022-11-29T23:41:25.894Z,18.40
2022-11-29T23:43:53.091Z,18.05
2022-11-29T23:46:21.502Z,19.63
2022-11-29T23:48:49.107Z,17.70
2022-11-29T23:51:18.167Z,17.48
2022-11-29T23:53:46.747Z,16.67
2022-11-29T23:56:15.824Z,17.70
2022-11-29T23:58:43.915Z,16.75
